createdAt,value
2022-10-01T00:00:17.369Z,14.47
2022-10-01T00:05:21.763Z,14.64
2022-10-01T00:10:25.694Z,14.68
2022-10-01T00:15:31.054Z,14.67
2022-10-01T00:20:35.321Z,14.70
2022-10-01T00:25:40.017Z,14.73
2022-10-01T00:30:49.310Z,14.78
2022-10-01T00:35:54.985Z,14.29
2022-10-01T00:40:59.414Z,14.33
2022-10-01T00:46:10.911Z,14.37
2022-10-01T00:51:15.229Z,14.39
2022-10-01T00:56:19.731Z,13.83
2022-10-01T01:01:25.471Z,14.19
2022-10-01T01:06:30.477Z,13.74
2022-10-01T01:11:45.821Z,13.85
2022-10-01T01:16:55.095Z,13.94
2022-10-01T01:22:03.293Z,14.25
2022-10-01T01:27:24.574Z,14.21
2022-10-01T01:32:35.651Z,14.36
2022-10-01T01:37:46.713Z,14.41
2022-10-01T01:42:52.167Z,14.21
2022-10-01T01:48:00.275Z,14.17
2022-10-01T01:53:04.417Z,14.08
2022-10-01T01:58:08.415Z,13.88
2022-10-01T02:03:14.041Z,13.80
2022-10-01T02:08:29.192Z,13.74
2022-10-01T02:13:43.759Z,14.02
2022-10-01T02:18:57.129Z,13.38
2022-10-01T02:24:07.992Z,13.76
2022-10-01T02:29:16.736Z,13.96
2022-10-01T02:34:29.313Z,13.56
2022-10-01T02:39:35.949Z,13.11
2022-10-01T02:44:43.239Z,12.89
2022-10-01T02:49:49.352Z,13.09
2022-10-01T02:54:58.411Z,13.10
2022-10-01T03:00:06.626Z,13.09
2022-10-01T03:05:12.097Z,13.23
2022-10-01T03:10:17.269Z,13.36
2022-10-01T03:15:21.869Z,13.42
2022-10-01T03:20:27.519Z,13.30
2022-10-01T03:25:31.510Z,13.32
2022-10-01T03:30:36.340Z,13.37
2022-10-01T03:35:42.874Z,13.32
2022-10-01T03:40:46.903Z,12.95
2022-10-01T03:45:50.939Z,12.83
2022-10-01T03:50:57.514Z,12.89
2022-10-01T03:56:02.260Z,12.98
2022-10-01T04:01:06.437Z,13.34
2022-10-01T04:06:12.183Z,13.40
2022-10-01T04:11:16.242Z,12.82
2022-10-01T04:16:20.606Z,13.19
2022-10-01T04:21:26.071Z,13.36
2022-10-01T04:26:30.119Z,13.32
2022-10-01T04:31:35.556Z,13.14
2022-10-01T04:36:41.399Z,12.96
2022-10-01T04:41:45.628Z,12.71
2022-10-01T04:46:49.667Z,12.85
2022-10-01T04:51:55.026Z,13.05
2022-10-01T04:57:01.552Z,13.18
2022-10-01T05:02:05.546Z,12.95
2022-10-01T05:07:11.148Z,13.32
2022-10-01T05:12:15.307Z,13.03
2022-10-01T05:17:19.860Z,13.49
2022-10-01T05:22:25.378Z,13.19
2022-10-01T05:27:30.360Z,13.57
2022-10-01T05:32:34.620Z,13.47
2022-10-01T05:37:41.502Z,13.75
2022-10-01T05:42:47.976Z,13.84
2022-10-01T05:47:58.770Z,14.47
2022-10-01T05:53:04.582Z,14.82
2022-10-01T05:58:10.637Z,15.00
2022-10-01T06:03:15.570Z,15.30
2022-10-01T06:08:22.799Z,15.69
2022-10-01T06:13:29.439Z,15.92
2022-10-01T06:18:33.447Z,16.00
2022-10-01T06:23:38.898Z,16.12
2022-10-01T06:28:43.380Z,16.65
2022-10-01T06:33:47.580Z,17.08
2022-10-01T06:38:52.917Z,17.77
2022-10-01T06:43:57.146Z,18.48
2022-10-01T06:49:01.258Z,19.36
2022-10-01T06:54:06.829Z,19.13
2022-10-01T06:59:11.547Z,19.32
2022-10-01T07:04:15.613Z,19.80
2022-10-01T07:09:21.158Z,20.34
2022-10-01T07:14:25.241Z,20.83
2022-10-01T07:19:29.178Z,20.94
2022-10-01T07:24:34.676Z,21.68
2022-10-01T07:29:40.481Z,22.97
2022-10-01T07:34:45.191Z,23.27
2022-10-01T07:39:50.639Z,24.53
2022-10-01T07:44:55.354Z,23.98
2022-10-01T07:49:59.340Z,24.14
2022-10-01T07:55:06.149Z,25.11
2022-10-01T08:00:11.543Z,26.00
2022-10-01T08:05:20.178Z,25.76
2022-10-01T08:10:26.590Z,25.84
2022-10-01T08:15:30.914Z,26.00
2022-10-01T08:20:35.241Z,25.06
2022-10-01T08:25:41.213Z,24.83
2022-10-01T08:30:46.636Z,23.96
2022-10-01T08:35:51.052Z,23.28
2022-10-01T08:40:56.709Z,23.20
2022-10-01T08:46:04.087Z,22.79
2022-10-01T08:51:17.129Z,22.81
2022-10-01T08:56:28.855Z,22.65
2022-10-01T09:01:33.335Z,22.28
2022-10-01T09:06:38.818Z,22.02
2022-10-01T09:17:16.849Z,21.45
2022-10-01T09:22:27.961Z,21.65
2022-10-01T09:27:33.351Z,21.68
2022-10-01T09:32:42.340Z,21.68
2022-10-01T09:37:53.038Z,21.51
2022-10-01T09:42:57.936Z,21.44
2022-10-01T09:48:14.403Z,20.98
2022-10-01T09:53:24.216Z,20.60
2022-10-01T09:58:30.640Z,20.50
2022-10-01T10:03:36.376Z,20.25
2022-10-01T10:08:41.612Z,20.00
2022-10-01T10:13:51.849Z,19.83
2022-10-01T10:19:02.819Z,19.72
2022-10-01T10:24:23.161Z,19.79
2022-10-01T10:29:30.496Z,20.09
2022-10-01T10:34:47.112Z,20.17
2022-10-01T10:39:53.987Z,20.18
2022-10-01T10:45:03.682Z,20.28
2022-10-01T10:50:29.986Z,20.46
2022-10-01T10:55:34.198Z,20.33
2022-10-01T11:00:46.503Z,20.19
2022-10-01T11:05:52.316Z,20.20
2022-10-01T11:11:09.026Z,20.28
2022-10-01T11:16:36.674Z,20.14
2022-10-01T11:21:59.366Z,20.03
2022-10-01T11:27:17.116Z,20.25
2022-10-01T11:32:34.492Z,20.47
2022-10-01T11:37:59.933Z,20.36
2022-10-01T11:43:09.985Z,20.25
2022-10-01T11:48:19.551Z,20.12
2022-10-01T11:53:32.359Z,20.41
2022-10-01T11:58:54.177Z,20.29
2022-10-01T12:04:17.522Z,19.98
2022-10-01T12:09:36.387Z,19.86
2022-10-01T12:14:47.369Z,19.89
2022-10-01T12:19:55.039Z,19.73
2022-10-01T12:25:00.571Z,19.62
2022-10-01T12:30:07.694Z,19.50
2022-10-01T12:35:29.941Z,19.22
2022-10-01T12:40:45.970Z,19.80
2022-10-01T12:45:58.386Z,19.97
2022-10-01T12:51:22.589Z,20.13
2022-10-01T12:56:35.709Z,20.39
2022-10-01T13:01:52.799Z,20.40
2022-10-01T13:07:16.299Z,20.57
2022-10-01T13:12:39.565Z,20.57
2022-10-01T13:17:50.964Z,20.61
2022-10-01T13:23:03.144Z,20.64
2022-10-01T13:28:17.640Z,20.90
2022-10-01T13:33:25.511Z,21.12
2022-10-01T13:38:43.265Z,21.27
2022-10-01T13:43:56.928Z,21.38
2022-10-01T13:49:08.437Z,21.50
2022-10-01T13:54:28.230Z,21.38
2022-10-01T13:59:37.238Z,21.23
2022-10-01T14:04:44.545Z,21.17
2022-10-01T14:09:51.955Z,20.96
2022-10-01T14:15:17.484Z,20.99
2022-10-01T14:20:24.632Z,21.08
2022-10-01T14:25:40.744Z,21.08
2022-10-01T14:30:54.652Z,21.17
2022-10-01T14:36:04.359Z,21.32
2022-10-01T14:41:21.138Z,21.03
2022-10-01T14:46:28.102Z,21.01
2022-10-01T14:51:32.331Z,21.13
2022-10-01T14:56:38.032Z,21.45
2022-10-01T15:01:43.414Z,21.12
2022-10-01T15:06:48.099Z,21.04
2022-10-01T15:11:53.048Z,20.99
2022-10-01T15:17:03.390Z,20.77
2022-10-01T15:22:08.626Z,20.89
2022-10-01T15:27:16.080Z,20.63
2022-10-01T15:32:24.986Z,20.84
2022-10-01T15:37:32.102Z,20.56
2022-10-01T15:42:37.894Z,20.45
2022-10-01T15:47:56.979Z,20.25
2022-10-01T15:53:10.183Z,20.19
2022-10-01T15:58:20.948Z,20.03
2022-10-01T16:03:32.253Z,19.98
2022-10-01T16:08:47.259Z,19.49
2022-10-01T16:13:57.030Z,19.46
2022-10-01T16:19:23.710Z,19.48
2022-10-01T16:24:29.471Z,19.36
2022-10-01T16:29:39.107Z,19.03
2022-10-01T16:34:46.964Z,18.90
2022-10-01T16:39:50.927Z,18.63
2022-10-01T16:44:54.897Z,18.47
2022-10-01T16:50:00.773Z,18.48
2022-10-01T16:55:05.893Z,18.23
2022-10-01T17:00:12.034Z,18.00
2022-10-01T17:05:22.536Z,17.97
2022-10-01T17:10:26.675Z,18.17
2022-10-01T17:15:31.035Z,18.00
2022-10-01T17:20:38.383Z,17.71
2022-10-01T17:25:43.091Z,17.95
2022-10-01T17:30:50.039Z,17.74
2022-10-01T17:35:55.901Z,18.01
2022-10-01T17:41:01.229Z,17.85
2022-10-01T17:46:05.335Z,17.34
2022-10-01T17:51:14.398Z,17.30
2022-10-01T17:56:20.411Z,17.29
2022-10-01T18:01:26.495Z,17.57
2022-10-01T18:06:32.237Z,18.03
2022-10-01T18:11:36.693Z,17.74
2022-10-01T18:16:41.170Z,17.90
2022-10-01T18:21:47.050Z,18.19
2022-10-01T18:26:51.848Z,17.97
2022-10-01T18:32:02.152Z,18.09
2022-10-01T18:37:16.112Z,18.23
2022-10-01T18:42:24.584Z,18.10
2022-10-01T18:47:39.492Z,17.85
2022-10-01T18:52:56.909Z,17.96
2022-10-01T18:58:15.112Z,18.04
2022-10-01T19:03:35.867Z,18.02
2022-10-01T19:08:52.585Z,18.08
2022-10-01T19:14:11.933Z,18.09
2022-10-01T19:19:25.886Z,18.30
2022-10-01T19:24:46.341Z,18.45
2022-10-01T19:30:08.291Z,18.29
2022-10-01T19:35:20.391Z,18.38
2022-10-01T19:40:33.536Z,18.63
2022-10-01T19:45:47.755Z,18.57
2022-10-01T19:50:57.059Z,18.64
2022-10-01T19:56:04.941Z,18.57
2022-10-01T20:01:13.976Z,18.48
2022-10-01T20:06:22.796Z,18.41
2022-10-01T20:11:31.768Z,18.35
2022-10-01T20:16:40.829Z,18.37
2022-10-01T20:21:56.503Z,18.52
2022-10-01T20:27:17.150Z,18.51
2022-10-01T20:32:27.569Z,18.42
2022-10-01T20:37:45.579Z,18.41
2022-10-01T20:42:52.531Z,18.41
2022-10-01T20:48:00.329Z,18.51
2022-10-01T20:53:24.976Z,18.33
2022-10-01T20:58:34.497Z,18.12
2022-10-01T21:03:44.460Z,18.03
2022-10-01T21:08:53.231Z,17.98
2022-10-01T21:14:07.799Z,18.13
2022-10-01T21:19:27.019Z,18.28
2022-10-01T21:24:46.703Z,18.27
2022-10-01T21:30:15.057Z,18.33
2022-10-01T21:35:32.281Z,18.30
2022-10-01T21:40:53.338Z,18.43
2022-10-01T21:46:07.927Z,18.51
2022-10-01T21:51:19.012Z,18.35
2022-10-01T21:56:42.039Z,17.74
2022-10-01T22:02:04.915Z,17.90
2022-10-01T22:07:19.064Z,17.78
2022-10-01T22:12:26.600Z,17.51
2022-10-01T22:17:36.883Z,17.04
2022-10-01T22:22:41.261Z,16.94
2022-10-01T22:27:52.876Z,17.18
2022-10-01T22:33:09.839Z,17.39
2022-10-01T22:38:20.040Z,17.26
2022-10-01T22:43:24.584Z,16.79
2022-10-01T22:48:46.188Z,16.70
2022-10-01T22:54:10.388Z,17.11
2022-10-01T22:59:22.924Z,16.87
2022-10-01T23:04:42.097Z,16.91
2022-10-01T23:09:54.091Z,16.85
2022-10-01T23:15:08.103Z,16.98
2022-10-01T23:20:23.990Z,16.57
2022-10-01T23:25:44.085Z,16.69
2022-10-01T23:31:06.459Z,16.68
2022-10-01T23:36:22.778Z,16.50
2022-10-01T23:41:34.670Z,16.77
2022-10-01T23:46:41.083Z,16.52
2022-10-01T23:51:51.031Z,16.59
2022-10-01T23:57:01.230Z,16.46
